Time;durP1;ratioP1;P1;durP2;ratioP2;P2;SDS_P1;SDS_P2;PMS_P1;PMS_P2;Temp;Humidity;BMP_temperature;BMP_pressure;BME280_temperature;BME280_humidity;BME280_pressure;Samples;Min_cycle;Max_cycle;Signal;HPM_P1;HPM_P2
2022/10/30 00:00:46;;;;;;;16.00;2.88;;;;;17.90;94587.00;;;;7391616;19;20180;-77
2022/10/30 00:03:21;;;;;;;10.40;2.25;;;;;17.90;94583.00;;;;7395138;19;20152;-78
2022/10/30 00:05:56;;;;;;;9.00;2.78;;;;;17.90;94587.00;;;;7398799;19;20587;-77
2022/10/30 00:08:26;;;;;;;13.90;2.90;;;;;17.70;94581.00;;;;7393343;19;20155;-77
2022/10/30 00:10:54;;;;;;;12.93;2.60;;;;;17.80;94586.00;;;;7394257;19;20180;-77
2022/10/30 00:13:29;;;;;;;11.38;2.90;;;;;17.80;94592.00;;;;7395032;19;20155;-76
2022/10/30 00:15:56;;;;;;;12.73;2.53;;;;;17.80;94588.00;;;;7396780;19;20494;-76
2022/10/30 00:18:24;;;;;;;15.63;2.83;;;;;17.70;94586.00;;;;7392716;19;20631;-76
2022/10/30 00:21:05;;;;;;;8.35;2.50;;;;;17.60;94586.00;;;;7395902;19;20135;-77
2022/10/30 00:23:32;;;;;;;10.00;2.45;;;16.80;99.90;17.50;94581.00;;;;7396262;19;20153;-77
2022/10/30 00:26:07;;;;;;;14.48;2.45;;;17.00;99.90;17.30;94576.00;;;;7395578;19;20140;-77
2022/10/30 00:28:34;;;;;;;9.98;2.70;;;16.90;99.90;17.40;94566.00;;;;7392019;19;20176;-76
2022/10/30 00:31:03;;;;;;;12.60;3.45;;;16.80;99.90;17.50;94598.00;;;;7393506;19;20117;-77
2022/10/30 00:33:37;;;;;;;17.63;2.60;;;16.80;99.90;17.50;94590.00;;;;7393811;19;20148;-76
2022/10/30 00:36:05;;;;;;;9.30;2.50;;;16.70;99.90;17.10;94602.00;;;;7398000;19;20150;-75
2022/10/30 00:38:32;;;;;;;14.07;2.72;;;16.70;99.90;17.00;94585.00;;;;7393547;19;20769;-76
2022/10/30 00:41:05;;;;;;;10.13;2.55;;;16.50;99.90;16.70;94591.00;;;;7392618;19;20151;-76
2022/10/30 00:43:38;;;;;;;12.43;2.42;;;16.20;99.90;16.60;94592.00;;;;7395336;19;20143;-76
2022/10/30 00:46:25;;;;;;;8.73;2.67;;;16.10;99.90;16.60;94589.00;;;;7397340;19;20596;-75
2022/10/30 00:49:10;;;;;;;14.98;2.63;;;16.00;99.90;16.40;94586.00;;;;7392793;19;20136;-76
2022/10/30 00:51:45;;;;;;;11.90;2.72;;;16.00;99.90;16.40;94586.00;;;;7395204;19;20591;-76
2022/10/30 00:54:20;;;;;;;10.73;2.55;;;16.00;99.90;16.80;94595.00;;;;7391810;19;20128;-76
2022/10/30 00:56:49;;;;;;;13.82;2.85;;;16.00;99.90;16.90;94584.00;;;;7393937;19;20143;-77
2022/10/30 00:59:25;;;;;;;14.35;2.97;;;16.10;99.90;16.90;94571.00;;;;7393742;19;20148;-78
2022/10/30 01:02:09;;;;;;;10.02;2.55;;;16.10;99.90;17.10;94574.00;;;;7394130;19;20152;-76
2022/10/30 01:04:45;;;;;;;8.75;2.28;;;16.20;99.90;17.20;94578.00;;;;7392129;19;20156;-76
2022/10/30 01:07:20;;;;;;;13.32;3.00;;;16.30;99.90;17.20;94567.00;;;;7394700;19;20583;-76
2022/10/30 01:09:47;;;;;;;9.07;2.40;;;16.40;99.90;17.10;94561.00;;;;7396181;19;20128;-76
2022/10/30 01:12:15;;;;;;;9.95;2.72;;;16.40;99.90;16.70;94580.00;;;;7395200;19;20152;-76
2022/10/30 01:14:55;;;;;;;10.75;2.58;;;16.40;99.90;16.90;94556.00;;;;7392021;19;20159;-76
2022/10/30 01:17:49;;;;;;;9.50;2.85;;;16.30;99.90;16.80;94568.00;;;;7394405;19;20642;-76
2022/10/30 01:20:34;;;;;;;6.50;2.40;;;16.30;99.90;16.90;94573.00;;;;7390818;19;20145;-77
2022/10/30 01:23:23;;;;;;;12.80;2.90;;;16.20;99.90;16.90;94557.00;;;;7393404;19;20129;-77
2022/10/30 01:26:26;;;;;;;10.10;2.72;;;16.20;99.90;16.40;94569.00;;;;7394423;19;20125;-76
2022/10/30 01:29:20;;;;;;;20.13;2.78;;;16.10;99.90;16.70;94554.00;;;;7391275;19;20182;-77
2022/10/30 01:32:37;;;;;;;9.20;2.53;;;16.10;99.90;16.80;94559.00;;;;7392400;19;21021;-76
2022/10/30 01:35:22;;;;;;;12.48;3.00;;;16.10;99.90;16.80;94540.00;;;;7390598;19;20197;-76
2022/10/30 01:38:30;;;;;;;8.60;2.20;;;16.10;99.90;17.00;94553.00;;;;7393304;19;20159;-76
2022/10/30 01:40:57;;;;;;;9.43;2.78;;;16.10;99.90;17.10;94547.00;;;;7391356;19;20568;-77
2022/10/30 01:43:34;;;;;;;10.23;2.80;;;16.10;99.90;17.00;94545.00;;;;7394319;19;20120;-77
2022/10/30 01:46:25;;;;;;;13.40;2.47;;;16.20;99.90;16.90;94532.00;;;;7395497;19;20148;-76
2022/10/30 01:49:06;;;;;;;10.63;2.42;;;16.10;99.90;16.90;94551.00;;;;7394680;19;20131;-76
2022/10/30 01:52:05;;;;;;;7.35;2.40;;;16.10;99.90;17.00;94554.00;;;;7394844;19;20133;-78
2022/10/30 01:55:18;;;;;;;8.38;2.63;;;16.10;99.90;16.60;94561.00;;;;7391302;19;20125;-77
2022/10/30 01:57:55;;;;;;;11.80;2.58;;;16.10;99.90;16.50;94553.00;;;;7392694;19;20135;-76
2022/10/30 02:00:34;;;;;;;12.48;3.60;;;16.00;99.90;16.60;94528.00;;;;7389365;19;20207;-79
2022/10/30 02:03:08;;;;;;;7.63;2.58;;;16.00;99.90;16.80;94518.00;;;;7392790;19;20495;-79
2022/10/30 02:05:50;;;;;;;7.70;2.22;;;15.90;99.90;16.70;94543.00;;;;7394535;19;20575;-78
2022/10/30 02:08:17;;;;;;;15.10;3.03;;;15.90;99.90;16.80;94535.00;;;;7390600;19;20144;-79
2022/10/30 02:10:53;;;;;;;6.97;2.58;;;15.90;99.90;16.90;94541.00;;;;7393078;19;20136;-79
2022/10/30 02:13:20;;;;;;;11.25;2.20;;;15.90;99.90;17.00;94523.00;;;;7396715;19;20128;-78
2022/10/30 02:15:48;;;;;;;12.75;3.25;;;15.90;99.90;16.80;94540.00;;;;7395344;19;20121;-80
2022/10/30 02:18:23;;;;;;;12.48;2.17;;;15.90;99.90;16.70;94540.00;;;;7392238;19;20460;-79
2022/10/30 02:20:51;;;;;;;12.05;2.72;;;15.90;99.90;16.60;94537.00;;;;7395169;19;20192;-77
2022/10/30 02:23:21;;;;;;;12.27;2.45;;;15.80;99.90;16.50;94518.00;;;;7393151;19;20635;-80
2022/10/30 02:25:54;;;;;;;12.63;2.85;;;15.70;99.90;16.50;94512.00;;;;7395351;19;20147;-80
2022/10/30 02:28:21;;;;;;;16.30;2.30;;;15.70;99.90;16.50;94512.00;;;;7393064;19;20211;-78
2022/10/30 02:30:48;;;;;;;7.70;2.40;;;15.70;99.90;16.40;94515.00;;;;7393762;19;20608;-79
2022/10/30 02:33:25;;;;;;;11.52;2.92;;;15.70;99.90;16.50;94511.00;;;;7394538;19;20145;-80
2022/10/30 02:35:53;;;;;;;12.70;2.88;;;15.60;99.90;16.80;94528.00;;;;7396110;19;20149;-79
2022/10/30 02:38:20;;;;;;;9.98;2.30;;;15.60;99.90;17.00;94513.00;;;;7392265;19;20607;-79
2022/10/30 02:40:57;;;;;;;12.02;2.70;;;15.80;99.90;17.10;94517.00;;;;7393356;19;20125;-80
2022/10/30 02:43:24;;;;;;;8.68;2.10;;;15.90;99.90;17.10;94503.00;;;;7395608;19;20149;-80
2022/10/30 02:45:52;;;;;;;16.02;2.90;;;15.90;99.90;17.00;94510.00;;;;7394293;19;20489;-80
2022/10/30 02:48:25;;;;;;;20.30;2.85;;;16.00;99.90;16.80;94534.00;;;;7390370;19;20153;-79
2022/10/30 02:50:52;;;;;;;6.10;2.22;;;16.00;99.90;16.80;94519.00;;;;7390811;19;20145;-79
2022/10/30 02:53:19;;;;;;;7.53;2.65;;;15.90;99.90;16.60;94506.00;;;;7391473;19;20145;-79
2022/10/30 02:55:54;;;;;;;8.73;2.65;;;15.80;99.90;16.60;94525.00;;;;7391221;19;20480;-79
2022/10/30 02:58:21;;;;;;;12.10;2.42;;;15.80;99.90;16.90;94524.00;;;;7390871;19;20484;-78
2022/10/30 03:00:48;;;;;;;10.10;2.15;;;15.80;99.90;16.70;94524.00;;;;7389099;19;20591;-78
2022/10/30 03:03:29;;;;;;;13.25;2.75;;;15.80;99.90;16.90;94517.00;;;;7389618;19;20163;-78
2022/10/30 03:06:00;;;;;;;5.93;2.05;;;15.90;99.90;17.00;94519.00;;;;7392257;19;20128;-77
2022/10/30 03:08:35;;;;;;;10.45;2.50;;;15.90;99.90;16.70;94516.00;;;;7387653;19;20140;-79
2022/10/30 03:11:07;;;;;;;10.23;2.45;;;15.90;99.90;16.60;94522.00;;;;7390162;19;20596;-78
2022/10/30 03:13:36;;;;;;;10.73;2.40;;;15.80;99.90;16.60;94503.00;;;;7395931;19;20148;-78
2022/10/30 03:16:22;;;;;;;21.05;2.90;;;15.80;99.90;16.70;94516.00;;;;7399734;19;20495;-80
2022/10/30 03:18:51;;;;;;;10.70;2.40;;;15.80;99.90;16.80;94537.00;;;;7397239;19;20149;-80
2022/10/30 03:21:27;;;;;;;14.60;2.60;;;15.80;99.90;16.80;94520.00;;;;7397873;19;20576;-79
2022/10/30 03:23:55;;;;;;;11.73;2.53;;;15.80;99.90;16.80;94534.00;;;;7398638;19;20614;-78
2022/10/30 03:26:22;;;;;;;7.40;2.58;;;15.80;99.90;16.80;94537.00;;;;7397093;19;20120;-78
2022/10/30 03:28:55;;;;;;;7.90;2.28;;;15.90;99.90;16.90;94533.00;;;;7395944;19;20519;-79
2022/10/30 03:31:22;;;;;;;8.68;2.30;;;15.90;99.90;17.00;94523.00;;;;7397128;19;20151;-77
2022/10/30 03:33:50;;;;;;;9.52;2.60;;;16.00;99.90;17.00;94536.00;;;;7396572;19;20219;-79
2022/10/30 03:36:25;;;;;;;11.15;2.40;;;16.00;99.90;16.80;94527.00;;;;7394858;19;20148;-78
2022/10/30 03:38:52;;;;;;;8.80;2.13;;;16.00;99.90;17.10;94522.00;;;;7395795;19;20153;-79
2022/10/30 03:41:19;;;;;;;9.55;2.28;;;16.10;99.90;17.00;94530.00;;;;7397622;19;20148;-79
2022/10/30 03:43:53;;;;;;;9.55;2.28;;;16.10;99.90;16.80;94522.00;;;;7398853;19;20614;-78
2022/10/30 03:46:20;;;;;;;9.98;2.03;;;16.00;99.90;16.70;94510.00;;;;7395037;19;20530;-78
2022/10/30 03:48:49;;;;;;;10.35;2.00;;;15.90;99.90;16.70;94513.00;;;;7396834;19;20907;-80
2022/10/30 03:51:24;;;;;;;5.07;1.85;;;15.90;99.90;16.80;94517.00;;;;7398232;19;20129;-78
2022/10/30 03:53:51;;;;;;;9.80;1.80;;;15.90;99.90;16.90;94529.00;;;;7399505;19;20145;-78
2022/10/30 03:56:21;;;;;;;7.78;2.22;;;15.90;99.90;16.50;94542.00;;;;7395259;19;20148;-78
2022/10/30 03:58:54;;;;;;;7.93;1.90;;;15.90;99.90;16.60;94523.00;;;;7395578;19;20742;-79
2022/10/30 04:01:34;;;;;;;5.75;1.70;;;15.80;99.90;16.40;94530.00;;;;7394938;19;20176;-79
2022/10/30 04:04:08;;;;;;;4.78;1.70;;;15.80;99.90;16.40;94522.00;;;;7396822;19;20599;-78
2022/10/30 04:06:35;;;;;;;5.63;1.90;;;15.70;99.90;16.30;94543.00;;;;7394703;19;20141;-78
2022/10/30 04:09:02;;;;;;;10.00;2.03;;;15.60;99.90;16.30;94534.00;;;;7394422;19;20121;-78
2022/10/30 04:11:37;;;;;;;4.88;1.80;;;15.60;99.90;16.50;94542.00;;;;7398297;19;20599;-79
2022/10/30 04:14:04;;;;;;;4.63;1.65;;;15.60;99.90;16.30;94536.00;;;;7396881;19;20125;-78
2022/10/30 04:16:31;;;;;;;6.85;1.80;;;15.50;99.90;16.30;94537.00;;;;7393799;19;20750;-78
2022/10/30 04:19:05;;;;;;;8.45;2.05;;;15.50;99.90;16.20;94524.00;;;;7396661;19;20216;-78
2022/10/30 04:21:32;;;;;;;12.77;1.85;;;15.40;99.90;16.20;94528.00;;;;7396118;19;20616;-79
2022/10/30 04:23:59;;;;;;;4.88;1.70;;;15.40;99.90;16.30;94526.00;;;;7395540;19;20219;-80
2022/10/30 04:26:33;;;;;;;7.53;2.15;;;15.40;99.90;16.30;94520.00;;;;7395485;19;20132;-78
2022/10/30 04:29:02;;;;;;;6.15;1.80;;;15.50;99.90;16.20;94534.00;;;;7394567;19;20176;-79
2022/10/30 04:31:29;;;;;;;10.77;1.85;;;15.50;99.90;16.20;94508.00;;;;7396195;19;20129;-78
2022/10/30 04:34:02;;;;;;;6.32;1.55;;;15.40;99.90;16.00;94513.00;;;;7395477;19;20139;-79
2022/10/30 04:36:32;;;;;;;6.25;1.83;;;15.40;99.90;16.10;94513.00;;;;7393544;19;20137;-78
2022/10/30 04:39:00;;;;;;;8.48;1.92;;;15.30;99.90;16.00;94517.00;;;;7393784;19;20149;-78
2022/10/30 04:41:33;;;;;;;7.18;1.65;;;15.30;99.90;15.90;94520.00;;;;7397641;19;20128;-77
2022/10/30 04:44:00;;;;;;;6.88;1.70;;;15.30;99.90;16.00;94540.00;;;;7396115;19;20660;-79
2022/10/30 04:46:27;;;;;;;2.75;1.10;;;15.30;99.90;15.90;94526.00;;;;7393684;19;20135;-78
2022/10/30 04:49:01;;;;;;;10.70;1.85;;;15.20;99.90;16.10;94532.00;;;;7394560;19;20149;-80
2022/10/30 04:51:28;;;;;;;4.28;1.20;;;15.20;99.90;16.00;94520.00;;;;7396677;19;20133;-79
2022/10/30 04:53:55;;;;;;;7.47;1.40;;;15.20;99.90;16.00;94540.00;;;;7395246;19;20149;-78
2022/10/30 04:56:31;;;;;;;3.15;1.13;;;15.20;99.90;15.90;94525.00;;;;7391091;19;20144;-78
2022/10/30 04:58:59;;;;;;;6.50;1.67;;;15.20;99.90;16.00;94510.00;;;;7394043;19;20156;-79
2022/10/30 05:01:26;;;;;;;7.20;1.40;;;15.20;99.90;15.90;94513.00;;;;7393022;19;20697;-79
2022/10/30 05:04:06;;;;;;;5.28;1.13;;;15.20;99.90;15.90;94519.00;;;;7395767;19;20234;-79
2022/10/30 05:06:33;;;;;;;2.92;1.17;;;15.20;99.90;15.80;94512.00;;;;7393571;19;20124;-79
2022/10/30 05:09:09;;;;;;;7.63;1.50;;;15.10;99.90;15.50;94508.00;;;;7395302;19;20215;-80
2022/10/30 05:11:36;;;;;;;5.45;1.58;;;15.10;99.90;15.50;94518.00;;;;7396161;19;20145;-79
2022/10/30 05:14:03;;;;;;;4.47;1.40;;;15.00;99.90;16.00;94502.00;;;;7395789;19;20125;-80
2022/10/30 05:16:36;;;;;;;5.60;1.35;;;15.00;99.90;16.00;94503.00;;;;7392007;19;20152;-79
2022/10/30 05:19:03;;;;;;;5.53;1.27;;;15.10;99.90;15.60;94498.00;;;;7394000;19;20148;-78
2022/10/30 05:21:30;;;;;;;5.43;1.60;;;15.10;99.90;15.60;94528.00;;;;7394838;19;20133;-77
2022/10/30 05:24:05;;;;;;;6.35;1.30;;;15.00;99.90;15.40;94518.00;;;;7394934;19;20150;-79
2022/10/30 05:26:32;;;;;;;6.22;1.50;;;14.90;99.90;15.60;94522.00;;;;7393759;19;20147;-78
2022/10/30 05:29:00;;;;;;;8.27;1.40;;;14.80;99.90;15.90;94518.00;;;;7393174;19;20174;-77
2022/10/30 05:31:33;;;;;;;7.68;1.48;;;14.80;99.90;16.00;94530.00;;;;7394956;19;20146;-80
2022/10/30 05:34:00;;;;;;;4.65;1.42;;;14.90;99.90;16.10;94511.00;;;;7394140;19;20600;-79
2022/10/30 05:36:33;;;;;;;6.32;1.60;;;15.00;99.90;16.10;94525.00;;;;7388826;19;20185;-78
2022/10/30 05:39:06;;;;;;;3.90;1.38;;;15.10;99.90;16.40;94501.00;;;;7392180;19;20149;-79
2022/10/30 05:41:33;;;;;;;3.95;1.25;;;15.30;99.90;16.50;94516.00;;;;7395412;19;20136;-80
2022/10/30 05:44:00;;;;;;;6.30;1.10;;;15.40;99.90;16.50;94521.00;;;;7395564;19;20204;-79
2022/10/30 05:46:34;;;;;;;7.93;2.10;;;15.50;99.90;16.50;94502.00;;;;7390265;19;20133;-79
2022/10/30 05:49:01;;;;;;;5.60;1.42;;;15.50;99.90;16.30;94505.00;;;;7392670;19;20133;-78
2022/10/30 05:51:28;;;;;;;7.45;1.70;;;15.50;99.90;16.20;94522.00;;;;7395136;19;20147;-80
2022/10/30 05:54:06;;;;;;;6.82;1.38;;;15.50;99.90;16.10;94517.00;;;;7394555;19;20147;-80
2022/10/30 05:56:36;;;;;;;5.95;1.20;;;15.40;99.90;15.80;94520.00;;;;7389509;19;20133;-78
2022/10/30 05:59:10;;;;;;;4.80;1.48;;;15.30;99.90;15.80;94512.00;;;;7394113;19;20564;-79
2022/10/30 06:01:43;;;;;;;2.80;1.30;;;15.20;99.90;15.80;94514.00;;;;7394244;19;20156;-81
2022/10/30 06:04:24;;;;;;;6.47;1.30;;;15.10;99.90;15.80;94513.00;;;;7390080;19;20493;-78
2022/10/30 06:06:51;;;;;;;3.20;1.30;;;15.10;99.90;16.00;94503.00;;;;7392050;19;20137;-80
2022/10/30 06:09:24;;;;;;;2.45;1.17;;;15.20;99.90;16.00;94509.00;;;;7395839;19;20129;-79
2022/10/30 06:11:52;;;;;;;4.80;1.10;;;15.20;99.90;15.70;94527.00;;;;7394888;19;20489;-79
2022/10/30 06:14:19;;;;;;;4.25;1.10;;;15.20;99.90;15.90;94510.00;;;;7393872;19;20511;-79
2022/10/30 06:16:53;;;;;;;5.95;1.17;;;15.20;99.90;15.90;94520.00;;;;7394562;19;20125;-78
2022/10/30 06:19:20;;;;;;;5.25;1.50;;;15.20;99.90;15.80;94536.00;;;;7393698;19;20498;-79
2022/10/30 06:21:47;;;;;;;3.15;0.90;;;15.20;99.90;15.90;94510.00;;;;7395500;19;20494;-79
2022/10/30 06:24:21;;;;;;;3.38;1.10;;;15.10;99.90;15.70;94530.00;;;;7390899;19;20131;-79
2022/10/30 06:26:49;;;;;;;3.42;1.30;;;15.10;99.90;15.60;94525.00;;;;7391599;19;20148;-80
2022/10/30 06:29:16;;;;;;;4.45;1.10;;;15.10;99.90;15.70;94519.00;;;;7393693;19;20145;-80
2022/10/30 06:31:50;;;;;;;3.00;1.10;;;15.10;99.90;16.00;94531.00;;;;7397079;19;20129;-78
2022/10/30 06:34:17;;;;;;;2.03;0.93;;;15.10;99.90;15.80;94536.00;;;;7395537;19;20197;-79
2022/10/30 06:36:44;;;;;;;3.25;1.15;;;15.20;99.90;16.00;94508.00;;;;7392854;19;20613;-80
2022/10/30 06:39:18;;;;;;;4.30;1.40;;;15.20;99.90;16.00;94520.00;;;;7394424;19;20478;-80
2022/10/30 06:41:45;;;;;;;2.97;1.20;;;15.30;99.90;15.90;94531.00;;;;7397671;19;20129;-80
2022/10/30 06:44:15;;;;;;;2.70;1.15;;;15.40;99.90;16.30;94508.00;;;;7396679;19;20504;-78
2022/10/30 06:46:53;;;;;;;8.02;1.52;;;15.50;99.90;16.70;94517.00;;;;7392024;19;20135;-80
2022/10/30 06:49:20;;;;;;;4.10;1.10;;;15.60;99.90;16.80;94526.00;;;;7402116;19;20141;-80
2022/10/30 06:51:49;;;;;;;3.15;1.20;;;15.80;99.90;16.80;94528.00;;;;7403023;19;20161;-78
2022/10/30 06:54:22;;;;;;;3.60;1.40;;;15.90;99.90;16.70;94508.00;;;;7400396;19;20144;-79
2022/10/30 06:56:50;;;;;;;3.63;1.50;;;16.00;99.90;16.50;94525.00;;;;7396955;19;20983;-78
2022/10/30 06:59:17;;;;;;;7.30;2.78;;;16.00;99.90;16.70;94514.00;;;;7401272;19;20148;-80
2022/10/30 07:01:57;;;;;;;4.85;1.67;;;16.10;99.90;16.50;94538.00;;;;7395445;19;20164;-80
2022/10/30 07:04:34;;;;;;;3.08;1.20;;;16.00;99.90;16.70;94527.00;;;;7396151;19;20618;-79
2022/10/30 07:07:07;;;;;;;6.40;1.42;;;16.10;99.90;16.80;94512.00;;;;7396744;19;20148;-80
2022/10/30 07:09:34;;;;;;;4.05;1.30;;;16.10;99.90;16.80;94517.00;;;;7399826;19;20144;-79
2022/10/30 07:12:01;;;;;;;7.63;1.60;;;16.20;99.90;17.00;94535.00;;;;7401013;19;20151;-80
2022/10/30 07:14:34;;;;;;;5.20;2.20;;;16.30;99.90;17.30;94523.00;;;;7396442;19;20197;-80
2022/10/30 07:17:02;;;;;;;4.72;1.73;;;16.40;99.90;17.60;94532.00;;;;7389111;19;20152;-78
2022/10/30 07:19:29;;;;;;;4.57;1.40;;;16.60;99.90;18.00;94513.00;;;;7395406;19;20145;-79
2022/10/30 07:22:02;;;;;;;3.05;1.20;;;16.80;99.90;18.10;94510.00;;;;7397558;19;20145;-78
2022/10/30 07:24:30;;;;;;;5.05;1.20;;;17.10;99.90;18.60;94531.00;;;;7398169;19;20657;-78
2022/10/30 07:26:57;;;;;;;1.88;1.15;;;17.30;99.90;18.80;94519.00;;;;7397465;19;21017;-78
2022/10/30 07:29:30;;;;;;;3.50;1.38;;;17.60;99.90;19.10;94520.00;;;;7396030;19;20189;-78
2022/10/30 07:31:57;;;;;;;3.38;1.15;;;17.90;99.90;19.30;94519.00;;;;7398656;19;20148;-79
2022/10/30 07:34:30;;;;;;;2.45;1.10;;;18.20;99.90;19.50;94548.00;;;;7395678;19;20139;-78
2022/10/30 07:37:03;;;;;;;4.45;1.20;;;18.40;99.90;19.60;94527.00;;;;7390281;19;20211;-79
2022/10/30 07:39:30;;;;;;;2.08;0.93;;;18.60;99.90;20.00;94525.00;;;;7396716;19;20141;-77
2022/10/30 07:41:57;;;;;;;3.10;1.38;;;18.80;99.90;20.30;94524.00;;;;7397943;19;20629;-78
2022/10/30 07:44:31;;;;;;;3.40;1.63;;;19.00;99.90;20.30;94532.00;;;;7393939;19;20141;-79
2022/10/30 07:46:58;;;;;;;6.28;1.70;;;19.20;99.90;20.60;94537.00;;;;7395109;19;20137;-79
2022/10/30 07:49:25;;;;;;;2.50;1.13;;;19.50;99.90;20.80;94549.00;;;;7396687;19;20148;-80
2022/10/30 07:51:59;;;;;;;4.60;1.20;;;19.80;99.90;21.00;94537.00;;;;7396736;19;20532;-78
2022/10/30 07:54:26;;;;;;;3.55;1.30;;;20.10;99.90;21.30;94542.00;;;;7392944;19;20144;-78
2022/10/30 07:56:53;;;;;;;2.95;1.05;;;20.40;99.90;21.20;94544.00;;;;7394894;19;20148;-79
2022/10/30 07:59:27;;;;;;;2.58;1.15;;;20.70;99.90;21.40;94547.00;;;;7395898;19;20607;-78
2022/10/30 08:02:01;;;;;;;2.10;1.10;;;20.80;99.90;21.70;94518.00;;;;7394716;19;20203;-79
2022/10/30 08:04:35;;;;;;;4.55;1.15;;;21.10;99.90;22.40;94536.00;;;;7391210;19;20151;-80
2022/10/30 08:07:03;;;;;;;6.18;1.55;;;21.30;99.90;22.80;94550.00;;;;7392194;19;20149;-78
2022/10/30 08:09:30;;;;;;;2.30;1.30;;;21.70;99.90;23.00;94537.00;;;;7394899;19;20136;-77
2022/10/30 08:12:04;;;;;;;5.50;1.20;;;21.90;99.90;23.30;94538.00;;;;7396163;19;20619;-79
2022/10/30 08:14:31;;;;;;;4.32;1.25;;;22.30;99.90;23.80;94536.00;;;;7398135;19;20137;-80
2022/10/30 08:16:58;;;;;;;2.63;1.10;;;22.50;99.90;24.50;94531.00;;;;7392843;19;20156;-76
2022/10/30 08:19:32;;;;;;;2.92;1.20;;;22.70;99.90;24.90;94547.00;;;;7396708;19;20185;-79
2022/10/30 08:22:01;;;;;;;3.83;1.30;;;22.80;99.90;24.60;94542.00;;;;7395505;19;20133;-76
2022/10/30 08:24:28;;;;;;;4.40;1.40;;;23.10;99.90;25.10;94549.00;;;;7395782;19;20136;-80
2022/10/30 08:27:02;;;;;;;3.42;1.23;;;23.20;99.90;25.20;94557.00;;;;7394690;19;20631;-78
2022/10/30 08:29:30;;;;;;;2.65;1.20;;;23.40;99.90;25.40;94541.00;;;;7394216;19;20153;-77
2022/10/30 08:31:57;;;;;;;2.47;1.38;;;23.50;99.90;25.10;94536.00;;;;7395973;19;20141;-78
2022/10/30 08:34:33;;;;;;;7.25;1.35;;;23.80;99.90;25.00;94541.00;;;;7395302;19;20530;-78
2022/10/30 08:37:00;;;;;;;3.40;1.17;;;24.20;99.90;25.70;94521.00;;;;7391074;19;20159;-79
2022/10/30 08:39:27;;;;;;;1.05;0.93;;;24.50;99.90;26.30;94549.00;;;;7393690;19;20129;-77
2022/10/30 08:42:04;;;;;;;2.28;1.20;;;;;26.40;94539.00;;;;7396036;19;20172;-79
2022/10/30 08:44:32;;;;;;;3.97;1.20;;;;;26.80;94546.00;;;;7392376;19;20189;-77
2022/10/30 08:46:59;;;;;;;2.05;1.20;;;;;27.00;94538.00;;;;7393779;19;20540;-80
2022/10/30 08:49:34;;;;;;;3.33;1.10;;;;;27.20;94546.00;;;;7392802;19;20121;-78
2022/10/30 08:52:01;;;;;;;2.83;1.10;;;;;26.50;94543.00;;;;7393442;19;20133;-77
2022/10/30 08:54:29;;;;;;;2.63;1.40;;;;;26.80;94547.00;;;;7393961;19;20243;-79
2022/10/30 08:57:03;;;;;;;4.00;1.60;;;;;27.60;94551.00;;;;7392533;19;20154;-78
2022/10/30 08:59:30;;;;;;;3.65;1.60;;;;;26.90;94546.00;;;;7397303;19;20576;-79
2022/10/30 09:01:58;;;;;;;4.05;1.50;;;;;27.50;94539.00;;;;7392037;19;20172;-78
2022/10/30 09:04:40;;;;;;;4.05;1.30;;;;;27.70;94538.00;;;;7393549;19;20156;-78
2022/10/30 09:07:08;;;;;;;3.63;1.30;;;;;27.90;94543.00;;;;7394423;19;20182;-77
2022/10/30 09:09:42;;;;;;;2.83;1.48;;;;;27.90;94543.00;;;;7390137;19;20144;-78
2022/10/30 09:12:10;;;;;;;1.42;1.23;;;;;28.50;94547.00;;;;7394448;19;20563;-79
2022/10/30 09:14:37;;;;;;;3.70;1.58;;;;;28.70;94550.00;;;;7394425;19;20263;-78
2022/10/30 09:17:15;;;;;;;3.40;1.23;;;;;28.50;94549.00;;;;7394231;19;20151;-78
2022/10/30 09:19:42;;;;;;;3.22;1.38;;;;;28.30;94549.00;;;;7393667;19;20597;-79
2022/10/30 09:22:11;;;;;;;4.00;1.50;;;;;28.50;94542.00;;;;7392356;19;20591;-78
2022/10/30 09:24:47;;;;;;;2.38;1.38;;;;;28.80;94544.00;;;;7393581;19;20179;-78
2022/10/30 09:27:17;;;;;;;3.00;1.30;;;;;28.40;94548.00;;;;7392084;19;20180;-77
2022/10/30 09:29:44;;;;;;;1.50;1.23;;;;;28.30;94552.00;;;;7394835;19;20154;-78
2022/10/30 09:32:19;;;;;;;4.05;1.48;;;;;29.30;94546.00;;;;7391711;19;20219;-78
2022/10/30 09:34:46;;;;;;;3.05;1.35;;;;;30.00;94552.00;;;;7393079;19;20152;-79
2022/10/30 09:37:14;;;;;;;3.80;1.40;;;;;29.80;94548.00;;;;7392433;19;20203;-75
2022/10/30 09:39:50;;;;;;;3.90;1.50;;;;;28.80;94556.00;;;;7393634;19;20459;-78
2022/10/30 09:42:51;;;;;;;2.05;1.48;;;;;29.00;94557.00;;;;7391998;19;20148;-77
2022/10/30 09:45:40;;;;;;;3.88;1.60;;;;;29.50;94552.00;;;;7391890;19;20587;-76
2022/10/30 09:48:57;;;;;;;6.30;1.60;;;;;30.10;94547.00;;;;7391969;19;20148;-78
2022/10/30 09:51:49;;;;;;;4.65;1.58;;;;;29.80;94560.00;;;;7391004;19;20654;-78
2022/10/30 09:54:43;;;;;;;3.85;1.40;;;;;28.10;94557.00;;;;7389183;19;20139;-78
2022/10/30 09:57:43;;;;;;;2.40;1.45;;;;;29.60;94559.00;;;;7389151;19;20147;-78
2022/10/30 10:00:21;;;;;;;2.80;1.70;;;;;30.20;94565.00;;;;7390219;19;20152;-79
2022/10/30 10:03:18;;;;;;;5.18;1.70;;;;;30.00;94567.00;;;;7390865;19;20152;-78
2022/10/30 10:05:58;;;;;;;2.58;1.30;;;;;29.90;94567.00;;;;7393167;19;20135;-77
2022/10/30 10:08:45;;;;;;;3.40;1.60;;;;;29.80;94567.00;;;;7395391;19;20124;-77
2022/10/30 10:11:35;;;;;;;2.05;1.40;;;;;29.60;94564.00;;;;7395590;19;20124;-78
2022/10/30 10:14:19;;;;;;;4.22;1.30;;;;;30.40;94573.00;;;;7392545;19;20155;-78
2022/10/30 10:16:55;;;;;;;1.80;1.58;;;;;30.60;94571.00;;;;7392066;19;20144;-78
2022/10/30 10:19:43;;;;;;;3.22;1.67;;;;;29.80;94564.00;;;;7393330;19;20144;-77
2022/10/30 10:22:21;;;;;;;2.30;1.73;;;;;29.90;94563.00;;;;7395808;19;20152;-78
2022/10/30 10:24:56;;;;;;;4.78;1.60;;;;;31.20;94563.00;;;;7400439;19;20136;-78
2022/10/30 10:28:05;;;;;;;2.55;1.33;;;;;31.20;94573.00;;;;7399944;19;20148;-78
2022/10/30 10:31:15;;;;;;;3.70;1.45;;;;;30.90;94571.00;;;;7400698;19;20132;-77
2022/10/30 10:34:05;;;;;;;5.15;1.50;;;;;30.20;94566.00;;;;7398634;19;20223;-78
2022/10/30 10:37:07;;;;;;;3.85;1.70;;;;;30.40;94578.00;;;;7396967;19;20199;-76
2022/10/30 10:39:58;;;;;;;3.45;1.83;;;;;29.90;94570.00;;;;7398239;19;20501;-77
2022/10/30 10:42:50;;;;;;;3.17;1.73;;;;;30.10;94572.00;;;;7397782;19;20144;-78
2022/10/30 10:45:28;;;;;;;6.97;1.90;;;;;29.40;94576.00;;;;7397514;19;20634;-78
2022/10/30 10:48:36;;;;;;;3.42;1.90;;;;;29.20;94573.00;;;;7397718;19;20685;-77
2022/10/30 10:51:19;;;;;;;3.15;1.80;;;;;29.30;94574.00;;;;7398435;19;20189;-78
2022/10/30 10:54:15;;;;;;;6.38;2.15;;;;;30.20;94564.00;;;;7398410;19;20650;-79
2022/10/30 10:56:47;;;;;;;6.15;1.98;;;;;30.50;94564.00;;;;7397962;19;20456;-78
2022/10/30 10:59:41;;;;;;;4.50;1.80;;;;;30.40;94570.00;;;;7394622;19;20622;-77
2022/10/30 11:02:29;;;;;;;3.83;1.70;;;;;30.10;94568.00;;;;7393236;19;20191;-80
2022/10/30 11:05:17;;;;;;;4.43;1.80;;;;;29.20;94575.00;;;;7396252;19;20156;-79
2022/10/30 11:07:48;;;;;;;4.80;1.83;;;;;28.70;94569.00;;;;7394120;19;20945;-78
2022/10/30 11:10:25;;;;;;;3.15;1.48;;;;;29.20;94572.00;;;;7392510;19;20156;-78
2022/10/30 11:12:58;;;;;;;3.83;1.92;;;;;28.90;94572.00;;;;7396390;19;20184;-77
2022/10/30 11:15:57;;;;;;;4.40;1.65;;;;;29.10;94569.00;;;;7395824;19;20456;-78
2022/10/30 11:18:25;;;;;;;3.65;1.75;;;;;29.20;94566.00;;;;7392304;19;20149;-79
2022/10/30 11:21:10;;;;;;;3.63;1.70;;;;;29.40;94564.00;;;;7396964;19;20148;-78
2022/10/30 11:23:43;;;;;;;3.58;2.30;;;;;28.80;94571.00;;;;7395120;19;20136;-77
2022/10/30 11:26:16;;;;;;;4.90;1.55;;;;;28.50;94569.00;;;;7398066;19;20521;-77
2022/10/30 11:29:10;;;;;;;4.28;1.70;;;;;27.90;94569.00;;;;7395934;19;20183;-79
2022/10/30 11:31:46;;;;;;;4.88;1.60;;;;;27.30;94572.00;;;;7394446;19;20155;-77
2022/10/30 11:34:16;;;;;;;2.72;2.00;;;;;26.90;94566.00;;;;7392926;19;20129;-79
2022/10/30 11:36:51;;;;;;;2.75;1.38;;;;;26.70;94574.00;;;;7394918;19;20626;-77
2022/10/30 11:39:33;;;;;;;6.75;1.90;;;;;26.70;94574.00;;;;7394541;19;20149;-77
2022/10/30 11:42:03;;;;;;;4.45;1.70;;;;;26.20;94563.00;;;;7395972;19;20138;-77
2022/10/30 11:44:58;;;;;;;3.75;1.70;;;;;25.90;94572.00;;;;7399341;19;20509;-78
2022/10/30 11:47:37;;;;;;;5.28;1.70;;;;;25.60;94573.00;;;;7394751;19;20148;-78